sensor_id;sensor_type;location;lat;lon;timestamp;pressure;altitude;pressure_sealevel;temperature;humidity
12536;BME280;6334;48.696;2.114;2024-01-30T00:02:08;101052.75;;;10.11;90.53
12536;BME280;6334;48.696;2.114;2024-01-30T00:04:39;101050.66;;;10.19;90.10
12536;BME280;6334;48.696;2.114;2024-01-30T00:07:09;101050.42;;;10.08;91.14
12536;BME280;6334;48.696;2.114;2024-01-30T00:09:40;101053.74;;;10.09;90.99
12536;BME280;6334;48.696;2.114;2024-01-30T00:12:10;101054.67;;;10.10;90.84
12536;BME280;6334;48.696;2.114;2024-01-30T00:14:43;101058.94;;;10.17;90.56
12536;BME280;6334;48.696;2.114;2024-01-30T00:17:14;101053.84;;;10.35;89.67
12536;BME280;6334;48.696;2.114;2024-01-30T00:19:44;101059.61;;;10.16;90.56
12536;BME280;6334;48.696;2.114;2024-01-30T00:22:15;101058.66;;;10.24;90.57
12536;BME280;6334;48.696;2.114;2024-01-30T00:24:45;101061.83;;;10.12;91.25
12536;BME280;6334;48.696;2.114;2024-01-30T00:27:16;101056.67;;;10.10;91.38
12536;BME280;6334;48.696;2.114;2024-01-30T00:29:46;101050.25;;;10.24;91.03
12536;BME280;6334;48.696;2.114;2024-01-30T00:32:18;101058.58;;;10.24;91.25
12536;BME280;6334;48.696;2.114;2024-01-30T00:34:48;101059.44;;;10.16;91.56
12536;BME280;6334;48.696;2.114;2024-01-30T00:37:19;101064.06;;;10.23;91.22
12536;BME280;6334;48.696;2.114;2024-01-30T00:39:49;101056.82;;;10.21;91.28
12536;BME280;6334;48.696;2.114;2024-01-30T00:42:20;101061.19;;;10.17;91.36
12536;BME280;6334;48.696;2.114;2024-01-30T00:44:50;101064.28;;;10.20;91.25
12536;BME280;6334;48.696;2.114;2024-01-30T00:47:21;101064.28;;;10.20;91.34
12536;BME280;6334;48.696;2.114;2024-01-30T00:49:51;101065.66;;;10.28;91.01
12536;BME280;6334;48.696;2.114;2024-01-30T00:52:22;101067.75;;;10.27;90.87
12536;BME280;6334;48.696;2.114;2024-01-30T00:54:52;101064.52;;;10.27;91.17
12536;BME280;6334;48.696;2.114;2024-01-30T00:57:25;101060.94;;;10.17;91.87
12536;BME280;6334;48.696;2.114;2024-01-30T00:59:56;101061.00;;;10.25;91.37
12536;BME280;6334;48.696;2.114;2024-01-30T01:02:26;101060.85;;;10.17;91.89
12536;BME280;6334;48.696;2.114;2024-01-30T01:04:57;101058.32;;;10.24;91.51
12536;BME280;6334;48.696;2.114;2024-01-30T01:07:27;101062.14;;;10.22;91.62
12536;BME280;6334;48.696;2.114;2024-01-30T01:09:58;101052.84;;;10.30;91.38
12536;BME280;6334;48.696;2.114;2024-01-30T01:12:28;101055.28;;;10.17;92.05
12536;BME280;6334;48.696;2.114;2024-01-30T01:14:59;101061.00;;;10.15;92.63
12536;BME280;6334;48.696;2.114;2024-01-30T01:17:29;101052.72;;;10.18;92.06
12536;BME280;6334;48.696;2.114;2024-01-30T01:19:59;101057.50;;;10.13;92.80
12536;BME280;6334;48.696;2.114;2024-01-30T01:22:30;101055.62;;;10.16;92.47
12536;BME280;6334;48.696;2.114;2024-01-30T01:25:01;101051.20;;;10.30;92.07
12536;BME280;6334;48.696;2.114;2024-01-30T01:27:31;101055.22;;;10.21;92.50
12536;BME280;6334;48.696;2.114;2024-01-30T01:30:01;101055.67;;;10.26;92.29
12536;BME280;6334;48.696;2.114;2024-01-30T01:32:32;101049.05;;;10.19;92.50
12536;BME280;6334;48.696;2.114;2024-01-30T01:35:02;101050.31;;;10.20;92.91
12536;BME280;6334;48.696;2.114;2024-01-30T01:37:33;101051.48;;;10.17;93.28
12536;BME280;6334;48.696;2.114;2024-01-30T01:40:03;101061.11;;;10.16;93.38
12536;BME280;6334;48.696;2.114;2024-01-30T01:42:34;101063.48;;;10.13;93.62
12536;BME280;6334;48.696;2.114;2024-01-30T01:45:04;101062.45;;;10.20;93.52
12536;BME280;6334;48.696;2.114;2024-01-30T01:47:35;101060.94;;;10.16;93.34
12536;BME280;6334;48.696;2.114;2024-01-30T01:50:05;101063.25;;;10.27;92.60
12536;BME280;6334;48.696;2.114;2024-01-30T01:52:36;101059.59;;;10.12;93.72
12536;BME280;6334;48.696;2.114;2024-01-30T01:55:06;101057.86;;;10.14;93.60
12536;BME280;6334;48.696;2.114;2024-01-30T01:57:36;101068.84;;;10.14;93.66
12536;BME280;6334;48.696;2.114;2024-01-30T02:00:07;101066.12;;;10.22;93.37
12536;BME280;6334;48.696;2.114;2024-01-30T02:02:37;101060.55;;;10.20;93.79
12536;BME280;6334;48.696;2.114;2024-01-30T02:05:08;101058.42;;;10.13;94.07
12536;BME280;6334;48.696;2.114;2024-01-30T02:07:38;101060.47;;;10.19;93.73
12536;BME280;6334;48.696;2.114;2024-01-30T02:10:09;101048.59;;;10.26;93.46
12536;BME280;6334;48.696;2.114;2024-01-30T02:12:39;101054.27;;;10.27;93.46
12536;BME280;6334;48.696;2.114;2024-01-30T02:15:12;101049.02;;;10.28;92.89
12536;BME280;6334;48.696;2.114;2024-01-30T02:17:40;101047.11;;;10.28;92.95
12536;BME280;6334;48.696;2.114;2024-01-30T02:20:11;101049.12;;;10.30;92.94
12536;BME280;6334;48.696;2.114;2024-01-30T02:22:41;101052.49;;;10.22;93.75
12536;BME280;6334;48.696;2.114;2024-01-30T02:25:12;101049.21;;;10.17;93.77
12536;BME280;6334;48.696;2.114;2024-01-30T02:27:42;101050.09;;;10.24;93.72
12536;BME280;6334;48.696;2.114;2024-01-30T02:30:13;101050.50;;;10.21;93.33
12536;BME280;6334;48.696;2.114;2024-01-30T02:32:43;101045.90;;;10.16;93.88
12536;BME280;6334;48.696;2.114;2024-01-30T02:35:13;101041.70;;;10.10;93.81
12536;BME280;6334;48.696;2.114;2024-01-30T02:37:44;101038.45;;;10.11;93.80
12536;BME280;6334;48.696;2.114;2024-01-30T02:40:14;101034.14;;;10.25;93.10
12536;BME280;6334;48.696;2.114;2024-01-30T02:42:45;101036.20;;;10.11;93.81
12536;BME280;6334;48.696;2.114;2024-01-30T02:45:15;101041.68;;;10.31;92.96
12536;BME280;6334;48.696;2.114;2024-01-30T02:47:46;101038.05;;;10.10;93.80
12536;BME280;6334;48.696;2.114;2024-01-30T02:50:16;101043.01;;;10.07;94.04
12536;BME280;6334;48.696;2.114;2024-01-30T02:52:47;101048.48;;;10.05;93.93
12536;BME280;6334;48.696;2.114;2024-01-30T02:55:17;101041.03;;;10.11;93.63
12536;BME280;6334;48.696;2.114;2024-01-30T02:57:48;101043.41;;;10.05;93.99
12536;BME280;6334;48.696;2.114;2024-01-30T03:00:19;101041.69;;;10.08;93.78
12536;BME280;6334;48.696;2.114;2024-01-30T03:02:48;101048.75;;;9.98;94.21
12536;BME280;6334;48.696;2.114;2024-01-30T03:05:19;101045.69;;;9.97;94.34
12536;BME280;6334;48.696;2.114;2024-01-30T03:07:49;101040.86;;;9.98;94.44
12536;BME280;6334;48.696;2.114;2024-01-30T03:10:20;101046.82;;;9.94;94.70
12536;BME280;6334;48.696;2.114;2024-01-30T03:12:50;101036.80;;;9.99;94.61
12536;BME280;6334;48.696;2.114;2024-01-30T03:15:21;101041.14;;;10.14;93.64
12536;BME280;6334;48.696;2.114;2024-01-30T03:17:51;101048.25;;;9.96;94.72
12536;BME280;6334;48.696;2.114;2024-01-30T03:20:23;101049.78;;;10.12;93.81
12536;BME280;6334;48.696;2.114;2024-01-30T03:22:53;101052.95;;;10.14;93.65
12536;BME280;6334;48.696;2.114;2024-01-30T03:25:24;101055.54;;;10.06;94.19
12536;BME280;6334;48.696;2.114;2024-01-30T03:27:54;101054.98;;;10.19;93.03
12536;BME280;6334;48.696;2.114;2024-01-30T03:30:25;101047.30;;;10.17;93.21
12536;BME280;6334;48.696;2.114;2024-01-30T03:32:55;101052.80;;;10.02;94.02
12536;BME280;6334;48.696;2.114;2024-01-30T03:35:25;101047.14;;;10.05;93.33
12536;BME280;6334;48.696;2.114;2024-01-30T03:37:56;101040.87;;;9.99;93.94
12536;BME280;6334;48.696;2.114;2024-01-30T03:40:26;101042.50;;;10.07;93.41
12536;BME280;6334;48.696;2.114;2024-01-30T03:42:57;101044.97;;;10.01;94.24
12536;BME280;6334;48.696;2.114;2024-01-30T03:45:26;101040.81;;;10.14;93.67
12536;BME280;6334;48.696;2.114;2024-01-30T03:47:57;101044.27;;;9.95;94.26
12536;BME280;6334;48.696;2.114;2024-01-30T03:50:27;101058.41;;;9.97;94.40
12536;BME280;6334;48.696;2.114;2024-01-30T03:52:58;101054.42;;;9.97;94.06
12536;BME280;6334;48.696;2.114;2024-01-30T03:55:28;101037.27;;;9.93;94.22
12536;BME280;6334;48.696;2.114;2024-01-30T03:57:59;101041.13;;;9.86;94.90
12536;BME280;6334;48.696;2.114;2024-01-30T04:00:29;101032.53;;;9.94;94.51
12536;BME280;6334;48.696;2.114;2024-01-30T04:03:00;101028.57;;;9.97;94.57
12536;BME280;6334;48.696;2.114;2024-01-30T04:05:30;101026.24;;;10.00;94.29
12536;BME280;6334;48.696;2.114;2024-01-30T04:08:00;101030.34;;;9.90;94.61
12536;BME280;6334;48.696;2.114;2024-01-30T04:10:31;101031.41;;;10.02;94.68
12536;BME280;6334;48.696;2.114;2024-01-30T04:13:01;101032.17;;;10.03;94.53
12536;BME280;6334;48.696;2.114;2024-01-30T04:15:32;101037.56;;;10.17;93.75
12536;BME280;6334;48.696;2.114;2024-01-30T04:18:04;101035.34;;;10.05;94.25
12536;BME280;6334;48.696;2.114;2024-01-30T04:20:34;101035.69;;;10.09;94.09
12536;BME280;6334;48.696;2.114;2024-01-30T04:23:06;101037.48;;;10.01;94.58
12536;BME280;6334;48.696;2.114;2024-01-30T04:25:36;101043.39;;;10.01;94.41
12536;BME280;6334;48.696;2.114;2024-01-30T04:28:07;101038.94;;;10.09;94.58
12536;BME280;6334;48.696;2.114;2024-01-30T04:30:38;101036.02;;;10.07;93.93
12536;BME280;6334;48.696;2.114;2024-01-30T04:33:08;101037.48;;;10.12;94.13
12536;BME280;6334;48.696;2.114;2024-01-30T04:35:38;101034.11;;;10.07;94.64
12536;BME280;6334;48.696;2.114;2024-01-30T04:38:09;101036.32;;;10.04;94.91
12536;BME280;6334;48.696;2.114;2024-01-30T04:40:39;101037.13;;;10.11;94.47
12536;BME280;6334;48.696;2.114;2024-01-30T04:43:10;101039.45;;;9.98;95.41
12536;BME280;6334;48.696;2.114;2024-01-30T04:45:40;101047.48;;;9.94;95.59
12536;BME280;6334;48.696;2.114;2024-01-30T04:48:11;101057.35;;;10.01;95.02
12536;BME280;6334;48.696;2.114;2024-01-30T04:50:41;101048.73;;;10.07;94.99
12536;BME280;6334;48.696;2.114;2024-01-30T04:53:12;101047.95;;;10.12;94.39
12536;BME280;6334;48.696;2.114;2024-01-30T04:55:42;101046.97;;;10.16;94.21
12536;BME280;6334;48.696;2.114;2024-01-30T04:58:13;101051.80;;;10.16;94.57
12536;BME280;6334;48.696;2.114;2024-01-30T05:00:43;101048.85;;;10.10;94.40
12536;BME280;6334;48.696;2.114;2024-01-30T05:03:13;101048.31;;;10.05;94.88
12536;BME280;6334;48.696;2.114;2024-01-30T05:05:44;101052.48;;;10.07;94.67
12536;BME280;6334;48.696;2.114;2024-01-30T05:08:16;101058.92;;;9.99;95.64
12536;BME280;6334;48.696;2.114;2024-01-30T05:10:46;101062.42;;;9.99;95.56
12536;BME280;6334;48.696;2.114;2024-01-30T05:13:17;101062.52;;;10.00;95.19
12536;BME280;6334;48.696;2.114;2024-01-30T05:15:47;101059.50;;;10.10;94.92
12536;BME280;6334;48.696;2.114;2024-01-30T05:18:17;101066.78;;;10.07;94.80
12536;BME280;6334;48.696;2.114;2024-01-30T05:20:49;101066.61;;;10.05;94.73
12536;BME280;6334;48.696;2.114;2024-01-30T05:23:18;101072.80;;;9.99;94.99
12536;BME280;6334;48.696;2.114;2024-01-30T05:25:49;101079.81;;;10.06;95.07
12536;BME280;6334;48.696;2.114;2024-01-30T05:28:19;101080.06;;;10.02;95.27
12536;BME280;6334;48.696;2.114;2024-01-30T05:30:50;101078.89;;;9.89;95.56
12536;BME280;6334;48.696;2.114;2024-01-30T05:33:20;101085.73;;;9.94;95.33
12536;BME280;6334;48.696;2.114;2024-01-30T05:35:51;101083.63;;;10.04;94.62
12536;BME280;6334;48.696;2.114;2024-01-30T05:38:21;101088.94;;;9.87;95.76
12536;BME280;6334;48.696;2.114;2024-01-30T05:40:51;101095.28;;;9.95;95.55
12536;BME280;6334;48.696;2.114;2024-01-30T05:43:22;101096.96;;;10.07;94.52
12536;BME280;6334;48.696;2.114;2024-01-30T05:45:52;101101.20;;;10.07;95.00
12536;BME280;6334;48.696;2.114;2024-01-30T05:48:23;101101.49;;;10.02;94.82
12536;BME280;6334;48.696;2.114;2024-01-30T05:50:53;101099.02;;;10.03;94.33
12536;BME280;6334;48.696;2.114;2024-01-30T05:53:24;101091.37;;;9.92;94.90
12536;BME280;6334;48.696;2.114;2024-01-30T05:55:54;101099.73;;;9.99;94.62
12536;BME280;6334;48.696;2.114;2024-01-30T05:58:25;101103.36;;;9.96;94.90
12536;BME280;6334;48.696;2.114;2024-01-30T06:00:55;101101.75;;;9.81;95.31
12536;BME280;6334;48.696;2.114;2024-01-30T06:03:26;101105.97;;;10.10;94.08
12536;BME280;6334;48.696;2.114;2024-01-30T06:05:56;101107.98;;;9.93;94.64
12536;BME280;6334;48.696;2.114;2024-01-30T06:08:26;101112.45;;;9.99;94.93
12536;BME280;6334;48.696;2.114;2024-01-30T06:10:57;101117.45;;;9.99;94.32
12536;BME280;6334;48.696;2.114;2024-01-30T06:13:27;101113.55;;;9.92;94.82
12536;BME280;6334;48.696;2.114;2024-01-30T06:15:58;101116.69;;;10.00;94.29
12536;BME280;6334;48.696;2.114;2024-01-30T06:18:28;101123.44;;;9.89;94.86
12536;BME280;6334;48.696;2.114;2024-01-30T06:20:59;101121.22;;;9.72;95.76
12536;BME280;6334;48.696;2.114;2024-01-30T06:23:29;101125.03;;;9.64;96.27
12536;BME280;6334;48.696;2.114;2024-01-30T06:26:00;101120.41;;;9.75;95.48
12536;BME280;6334;48.696;2.114;2024-01-30T06:28:30;101126.06;;;9.68;95.76
12536;BME280;6334;48.696;2.114;2024-01-30T06:31:00;101132.30;;;9.77;95.33
12536;BME280;6334;48.696;2.114;2024-01-30T06:33:29;101142.52;;;9.95;94.42
12536;BME280;6334;48.696;2.114;2024-01-30T06:35:59;101149.02;;;10.09;93.75
12536;BME280;6334;48.696;2.114;2024-01-30T06:38:28;101148.70;;;9.91;94.52
12536;BME280;6334;48.696;2.114;2024-01-30T06:40:59;101147.33;;;9.84;94.66
12536;BME280;6334;48.696;2.114;2024-01-30T06:43:28;101138.70;;;9.70;95.51
12536;BME280;6334;48.696;2.114;2024-01-30T06:45:59;101137.97;;;9.69;95.54
12536;BME280;6334;48.696;2.114;2024-01-30T06:48:30;101140.79;;;9.88;94.56
12536;BME280;6334;48.696;2.114;2024-01-30T06:50:59;101143.62;;;9.72;95.24
12536;BME280;6334;48.696;2.114;2024-01-30T06:53:30;101145.57;;;9.55;96.47
12536;BME280;6334;48.696;2.114;2024-01-30T06:56:01;101147.92;;;9.60;96.14
12536;BME280;6334;48.696;2.114;2024-01-30T06:58:33;101150.48;;;9.68;95.34
12536;BME280;6334;48.696;2.114;2024-01-30T07:01:03;101154.98;;;9.61;95.59
12536;BME280;6334;48.696;2.114;2024-01-30T07:03:32;101161.20;;;9.74;94.97
12536;BME280;6334;48.696;2.114;2024-01-30T07:06:02;101165.64;;;9.69;95.24
12536;BME280;6334;48.696;2.114;2024-01-30T07:08:32;101164.59;;;9.72;94.86
12536;BME280;6334;48.696;2.114;2024-01-30T07:11:05;101171.73;;;9.80;94.53
12536;BME280;6334;48.696;2.114;2024-01-30T07:13:34;101167.97;;;9.62;95.57
12536;BME280;6334;48.696;2.114;2024-01-30T07:16:04;101174.69;;;9.59;95.92
12536;BME280;6334;48.696;2.114;2024-01-30T07:18:34;101173.64;;;9.74;95.54
12536;BME280;6334;48.696;2.114;2024-01-30T07:21:04;101169.64;;;9.54;96.59
12536;BME280;6334;48.696;2.114;2024-01-30T07:23:35;101169.52;;;9.57;96.64
12536;BME280;6334;48.696;2.114;2024-01-30T07:26:07;101172.39;;;9.64;96.45
12536;BME280;6334;48.696;2.114;2024-01-30T07:28:37;101176.82;;;9.58;96.75
12536;BME280;6334;48.696;2.114;2024-01-30T07:31:06;101171.27;;;9.42;97.34
12536;BME280;6334;48.696;2.114;2024-01-30T07:33:36;101181.41;;;9.77;95.92
12536;BME280;6334;48.696;2.114;2024-01-30T07:36:05;101183.03;;;9.48;97.37
12536;BME280;6334;48.696;2.114;2024-01-30T07:38:35;101189.22;;;9.45;97.75
12536;BME280;6334;48.696;2.114;2024-01-30T07:41:05;101192.31;;;9.61;96.89
12536;BME280;6334;48.696;2.114;2024-01-30T07:43:35;101198.44;;;9.67;96.97
12536;BME280;6334;48.696;2.114;2024-01-30T07:46:04;101200.87;;;9.69;96.38
12536;BME280;6334;48.696;2.114;2024-01-30T07:48:34;101204.84;;;9.53;97.38
12536;BME280;6334;48.696;2.114;2024-01-30T07:51:04;101204.34;;;9.75;96.33
12536;BME280;6334;48.696;2.114;2024-01-30T07:53:33;101209.20;;;9.71;96.67
12536;BME280;6334;48.696;2.114;2024-01-30T07:56:03;101214.41;;;9.62;96.88
12536;BME280;6334;48.696;2.114;2024-01-30T07:58:33;101212.00;;;9.69;96.70
12536;BME280;6334;48.696;2.114;2024-01-30T08:01:02;101216.00;;;9.69;96.67
12536;BME280;6334;48.696;2.114;2024-01-30T08:03:32;101216.41;;;9.69;96.83
12536;BME280;6334;48.696;2.114;2024-01-30T08:06:02;101218.05;;;9.52;97.62
12536;BME280;6334;48.696;2.114;2024-01-30T08:08:31;101219.45;;;9.61;97.23
12536;BME280;6334;48.696;2.114;2024-01-30T08:11:02;101222.45;;;9.52;97.88
12536;BME280;6334;48.696;2.114;2024-01-30T08:13:32;101226.96;;;9.69;96.60
12536;BME280;6334;48.696;2.114;2024-01-30T08:16:01;101228.64;;;9.63;97.07
12536;BME280;6334;48.696;2.114;2024-01-30T08:18:32;101229.78;;;9.76;96.41
12536;BME280;6334;48.696;2.114;2024-01-30T08:21:02;101237.00;;;9.85;96.46
12536;BME280;6334;48.696;2.114;2024-01-30T08:23:32;101239.09;;;9.76;96.49
12536;BME280;6334;48.696;2.114;2024-01-30T08:26:02;101246.77;;;9.88;96.47
12536;BME280;6334;48.696;2.114;2024-01-30T08:28:31;101254.57;;;10.02;95.62
12536;BME280;6334;48.696;2.114;2024-01-30T08:31:01;101262.02;;;9.85;96.58
12536;BME280;6334;48.696;2.114;2024-01-30T08:33:31;101264.12;;;9.79;96.89
12536;BME280;6334;48.696;2.114;2024-01-30T08:36:01;101260.36;;;9.77;97.21
12536;BME280;6334;48.696;2.114;2024-01-30T08:38:31;101262.75;;;9.83;96.58
12536;BME280;6334;48.696;2.114;2024-01-30T08:41:01;101260.76;;;9.82;97.02
12536;BME280;6334;48.696;2.114;2024-01-30T08:43:30;101260.30;;;9.72;97.56
12536;BME280;6334;48.696;2.114;2024-01-30T08:46:01;101263.50;;;9.89;97.15
12536;BME280;6334;48.696;2.114;2024-01-30T08:48:31;101260.03;;;9.77;97.35
12536;BME280;6334;48.696;2.114;2024-01-30T08:51:02;101273.95;;;9.81;97.44
12536;BME280;6334;48.696;2.114;2024-01-30T08:53:32;101271.76;;;9.64;98.35
12536;BME280;6334;48.696;2.114;2024-01-30T08:56:02;101278.21;;;9.74;97.91
12536;BME280;6334;48.696;2.114;2024-01-30T08:58:31;101289.73;;;9.85;97.66
12536;BME280;6334;48.696;2.114;2024-01-30T09:01:01;101291.20;;;9.92;97.30
12536;BME280;6334;48.696;2.114;2024-01-30T09:03:30;101293.52;;;9.93;97.04
12536;BME280;6334;48.696;2.114;2024-01-30T09:06:00;101301.05;;;9.96;97.60
12536;BME280;6334;48.696;2.114;2024-01-30T09:08:30;101301.34;;;9.99;97.03
12536;BME280;6334;48.696;2.114;2024-01-30T09:11:08;101304.30;;;9.88;97.72
12536;BME280;6334;48.696;2.114;2024-01-30T09:13:31;101304.63;;;9.95;97.98
12536;BME280;6334;48.696;2.114;2024-01-30T09:16:00;101311.44;;;9.96;97.97
12536;BME280;6334;48.696;2.114;2024-01-30T09:18:30;101309.23;;;9.92;97.87
12536;BME280;6334;48.696;2.114;2024-01-30T09:20:59;101314.13;;;10.05;97.74
12536;BME280;6334;48.696;2.114;2024-01-30T09:23:29;101319.45;;;10.00;98.13
12536;BME280;6334;48.696;2.114;2024-01-30T09:25:59;101313.70;;;9.98;98.24
12536;BME280;6334;48.696;2.114;2024-01-30T09:28:29;101323.12;;;9.99;98.36
12536;BME280;6334;48.696;2.114;2024-01-30T09:30:59;101327.53;;;9.99;98.69
12536;BME280;6334;48.696;2.114;2024-01-30T09:33:28;101322.88;;;10.07;98.28
12536;BME280;6334;48.696;2.114;2024-01-30T09:35:58;101323.08;;;10.02;98.52
12536;BME280;6334;48.696;2.114;2024-01-30T09:38:27;101330.23;;;10.02;98.11
12536;BME280;6334;48.696;2.114;2024-01-30T09:40:57;101333.67;;;10.07;98.10
12536;BME280;6334;48.696;2.114;2024-01-30T09:43:27;101337.59;;;10.21;97.21
12536;BME280;6334;48.696;2.114;2024-01-30T09:45:57;101339.94;;;10.01;98.59
12536;BME280;6334;48.696;2.114;2024-01-30T09:48:27;101335.44;;;10.09;98.71
12536;BME280;6334;48.696;2.114;2024-01-30T09:50:57;101341.92;;;10.10;98.36
12536;BME280;6334;48.696;2.114;2024-01-30T09:53:28;101339.63;;;10.18;98.04
12536;BME280;6334;48.696;2.114;2024-01-30T09:55:59;101346.23;;;10.21;97.84
12536;BME280;6334;48.696;2.114;2024-01-30T09:58:28;101348.60;;;10.18;97.64
12536;BME280;6334;48.696;2.114;2024-01-30T10:00:58;101356.44;;;10.13;98.07
12536;BME280;6334;48.696;2.114;2024-01-30T10:03:28;101356.67;;;10.17;98.43
12536;BME280;6334;48.696;2.114;2024-01-30T10:05:57;101359.00;;;10.10;98.85
12536;BME280;6334;48.696;2.114;2024-01-30T10:08:27;101358.67;;;10.31;97.53
12536;BME280;6334;48.696;2.114;2024-01-30T10:10:57;101361.55;;;10.23;98.01
12536;BME280;6334;48.696;2.114;2024-01-30T10:13:27;101368.00;;;10.27;97.87
12536;BME280;6334;48.696;2.114;2024-01-30T10:15:57;101368.55;;;10.23;97.96
12536;BME280;6334;48.696;2.114;2024-01-30T10:18:27;101374.50;;;10.29;98.25
12536;BME280;6334;48.696;2.114;2024-01-30T10:20:56;101374.19;;;10.17;98.39
12536;BME280;6334;48.696;2.114;2024-01-30T10:23:26;101376.73;;;10.34;97.62
12536;BME280;6334;48.696;2.114;2024-01-30T10:25:57;101381.64;;;10.20;98.73
12536;BME280;6334;48.696;2.114;2024-01-30T10:28:27;101383.52;;;10.23;98.52
12536;BME280;6334;48.696;2.114;2024-01-30T10:30:57;101389.42;;;10.23;98.99
12536;BME280;6334;48.696;2.114;2024-01-30T10:33:27;101388.80;;;10.15;99.12
12536;BME280;6334;48.696;2.114;2024-01-30T10:36:03;101397.58;;;10.10;99.42
12536;BME280;6334;48.696;2.114;2024-01-30T10:38:32;101399.50;;;10.25;99.04
12536;BME280;6334;48.696;2.114;2024-01-30T10:41:04;101401.09;;;10.13;99.32
12536;BME280;6334;48.696;2.114;2024-01-30T10:43:38;101407.59;;;10.27;99.04
12536;BME280;6334;48.696;2.114;2024-01-30T10:46:19;101407.85;;;10.40;98.25
12536;BME280;6334;48.696;2.114;2024-01-30T10:48:57;101407.91;;;10.47;97.63
12536;BME280;6334;48.696;2.114;2024-01-30T10:51:29;101405.06;;;10.45;97.75
12536;BME280;6334;48.696;2.114;2024-01-30T10:53:59;101404.60;;;10.41;97.67
12536;BME280;6334;48.696;2.114;2024-01-30T10:56:29;101409.20;;;10.36;98.25
12536;BME280;6334;48.696;2.114;2024-01-30T10:58:59;101406.19;;;10.47;98.21
12536;BME280;6334;48.696;2.114;2024-01-30T11:01:29;101404.98;;;10.36;98.58
12536;BME280;6334;48.696;2.114;2024-01-30T11:03:58;101404.92;;;10.31;99.01
12536;BME280;6334;48.696;2.114;2024-01-30T11:06:28;101404.50;;;10.38;98.72
12536;BME280;6334;48.696;2.114;2024-01-30T11:09:01;101406.13;;;10.50;98.40
12536;BME280;6334;48.696;2.114;2024-01-30T11:11:46;101407.03;;;10.67;97.70
12536;BME280;6334;48.696;2.114;2024-01-30T11:14:02;101408.17;;;10.72;97.00
12536;BME280;6334;48.696;2.114;2024-01-30T11:16:34;101398.03;;;10.65;97.54
12536;BME280;6334;48.696;2.114;2024-01-30T11:19:04;101405.19;;;10.65;98.00
12536;BME280;6334;48.696;2.114;2024-01-30T11:21:34;101402.73;;;10.78;97.24
12536;BME280;6334;48.696;2.114;2024-01-30T11:24:03;101404.25;;;10.73;97.42
12536;BME280;6334;48.696;2.114;2024-01-30T11:26:33;101401.67;;;10.92;96.71
12536;BME280;6334;48.696;2.114;2024-01-30T11:29:03;101396.00;;;10.98;96.76
12536;BME280;6334;48.696;2.114;2024-01-30T11:31:33;101396.13;;;10.95;96.67
12536;BME280;6334;48.696;2.114;2024-01-30T11:34:02;101401.58;;;11.11;96.00
12536;BME280;6334;48.696;2.114;2024-01-30T11:36:33;101399.52;;;11.23;95.86
12536;BME280;6334;48.696;2.114;2024-01-30T11:39:02;101403.45;;;11.14;95.28
12536;BME280;6334;48.696;2.114;2024-01-30T11:41:32;101400.91;;;11.19;95.63
12536;BME280;6334;48.696;2.114;2024-01-30T11:44:03;101400.42;;;11.22;95.54
12536;BME280;6334;48.696;2.114;2024-01-30T11:46:31;101400.48;;;11.28;95.05
12536;BME280;6334;48.696;2.114;2024-01-30T11:49:01;101403.69;;;11.11;96.17
12536;BME280;6334;48.696;2.114;2024-01-30T11:51:31;101401.42;;;11.32;95.38
12536;BME280;6334;48.696;2.114;2024-01-30T11:54:01;101402.73;;;11.31;94.60
12536;BME280;6334;48.696;2.114;2024-01-30T11:56:30;101399.66;;;11.44;94.13
12536;BME280;6334;48.696;2.114;2024-01-30T11:59:00;101395.86;;;11.52;94.05
12536;BME280;6334;48.696;2.114;2024-01-30T12:01:29;101392.98;;;11.42;94.00
12536;BME280;6334;48.696;2.114;2024-01-30T12:03:59;101392.73;;;11.44;92.87
12536;BME280;6334;48.696;2.114;2024-01-30T12:06:28;101395.00;;;11.46;92.71
12536;BME280;6334;48.696;2.114;2024-01-30T12:08:58;101397.22;;;11.43;93.12
12536;BME280;6334;48.696;2.114;2024-01-30T12:11:28;101396.75;;;11.59;93.42
12536;BME280;6334;48.696;2.114;2024-01-30T12:13:58;101403.92;;;11.24;90.06
12536;BME280;6334;48.696;2.114;2024-01-30T12:16:27;101400.57;;;11.31;90.46
12536;BME280;6334;48.696;2.114;2024-01-30T12:19:00;101410.56;;;11.19;89.49
12536;BME280;6334;48.696;2.114;2024-01-30T12:21:31;101413.28;;;11.25;88.58
12536;BME280;6334;48.696;2.114;2024-01-30T12:24:01;101407.27;;;11.15;87.77
12536;BME280;6334;48.696;2.114;2024-01-30T12:26:31;101404.70;;;11.25;88.89
12536;BME280;6334;48.696;2.114;2024-01-30T12:29:00;101406.28;;;11.39;88.29
12536;BME280;6334;48.696;2.114;2024-01-30T12:31:31;101406.39;;;11.28;87.58
12536;BME280;6334;48.696;2.114;2024-01-30T12:34:13;101406.36;;;11.47;87.98
12536;BME280;6334;48.696;2.114;2024-01-30T12:36:40;101411.52;;;11.34;87.56
12536;BME280;6334;48.696;2.114;2024-01-30T12:39:12;101398.10;;;11.34;86.69
12536;BME280;6334;48.696;2.114;2024-01-30T12:41:41;101398.95;;;11.36;86.81
12536;BME280;6334;48.696;2.114;2024-01-30T12:44:13;101400.50;;;11.33;86.58
12536;BME280;6334;48.696;2.114;2024-01-30T12:46:43;101397.23;;;11.20;86.48
12536;BME280;6334;48.696;2.114;2024-01-30T12:49:14;101408.25;;;11.22;88.09
12536;BME280;6334;48.696;2.114;2024-01-30T12:51:43;101415.12;;;11.18;86.21
12536;BME280;6334;48.696;2.114;2024-01-30T12:54:13;101414.98;;;11.08;85.83
12536;BME280;6334;48.696;2.114;2024-01-30T12:56:42;101415.61;;;10.96;86.14
12536;BME280;6334;48.696;2.114;2024-01-30T12:59:13;101417.39;;;10.99;85.03
12536;BME280;6334;48.696;2.114;2024-01-30T13:01:43;101414.84;;;11.23;84.84
12536;BME280;6334;48.696;2.114;2024-01-30T13:04:13;101411.72;;;11.17;85.70
12536;BME280;6334;48.696;2.114;2024-01-30T13:06:42;101412.09;;;11.24;85.04
12536;BME280;6334;48.696;2.114;2024-01-30T13:09:13;101407.00;;;11.22;86.33
12536;BME280;6334;48.696;2.114;2024-01-30T13:11:42;101410.28;;;11.36;85.91
12536;BME280;6334;48.696;2.114;2024-01-30T13:14:12;101403.13;;;11.51;84.63
12536;BME280;6334;48.696;2.114;2024-01-30T13:16:42;101400.06;;;11.58;83.92
12536;BME280;6334;48.696;2.114;2024-01-30T13:19:12;101404.23;;;11.28;85.41
12536;BME280;6334;48.696;2.114;2024-01-30T13:21:49;101405.25;;;11.35;85.36